createdAt,value
2023-12-26T00:00:08.002Z,16.90
2023-12-26T00:02:35.853Z,7.40
2023-12-26T00:05:03.671Z,8.70
2023-12-26T00:07:31.448Z,8.50
2023-12-26T00:09:59.115Z,9.40
2023-12-26T00:12:26.678Z,10.30
2023-12-26T00:14:54.468Z,8.50
2023-12-26T00:17:22.196Z,8.50
2023-12-26T00:19:49.988Z,9.50
2023-12-26T00:22:17.523Z,16.70
2023-12-26T00:24:45.191Z,22.40
2023-12-26T00:27:12.887Z,20.70
2023-12-26T00:29:40.751Z,22.20
2023-12-26T00:32:08.670Z,16.20
2023-12-26T00:34:36.463Z,10.90
2023-12-26T00:37:04.239Z,13.00
2023-12-26T00:39:31.752Z,15.30
2023-12-26T00:41:59.589Z,12.70
2023-12-26T00:44:27.404Z,9.90
2023-12-26T00:46:55.052Z,8.30
2023-12-26T00:49:22.681Z,10.20
2023-12-26T00:51:50.481Z,8.10
2023-12-26T00:54:18.300Z,10.90
2023-12-26T00:56:46.028Z,8.10
2023-12-26T00:59:13.572Z,6.80
2023-12-26T01:01:41.119Z,8.50
2023-12-26T01:04:08.744Z,5.50
2023-12-26T01:06:36.446Z,6.00
2023-12-26T01:09:04.246Z,7.00
2023-12-26T01:11:31.889Z,5.60
2023-12-26T01:13:59.526Z,5.90
2023-12-26T01:16:27.080Z,4.00
2023-12-26T01:18:55.209Z,4.40
2023-12-26T01:21:23.133Z,6.60
2023-12-26T01:23:51.122Z,3.60
2023-12-26T01:26:18.647Z,3.90
2023-12-26T01:31:27.603Z,4.10
2023-12-26T01:33:55.457Z,4.50
2023-12-26T01:36:23.119Z,2.90
2023-12-26T01:38:51.106Z,3.10
2023-12-26T01:41:18.751Z,3.40
2023-12-26T01:43:46.303Z,3.10
2023-12-26T01:48:55.665Z,4.60
2023-12-26T01:51:23.368Z,4.40
2023-12-26T01:53:51.125Z,4.40
2023-12-26T01:56:18.743Z,2.00
2023-12-26T01:58:46.407Z,1.90
2023-12-26T02:01:14.085Z,3.10
2023-12-26T02:03:42.056Z,1.90
2023-12-26T02:06:09.673Z,2.90
2023-12-26T02:08:37.425Z,2.40
2023-12-26T02:11:05.244Z,2.40
2023-12-26T02:13:32.884Z,2.30
2023-12-26T02:16:00.545Z,2.70
2023-12-26T02:18:28.222Z,2.10
2023-12-26T02:20:55.992Z,3.20
2023-12-26T02:23:23.628Z,3.40
2023-12-26T02:25:51.610Z,2.30
2023-12-26T02:28:19.262Z,2.40
2023-12-26T02:30:46.852Z,2.60
2023-12-26T02:33:14.555Z,2.60
2023-12-26T02:35:42.259Z,1.70
2023-12-26T02:38:09.802Z,1.60
2023-12-26T02:40:37.457Z,1.30
2023-12-26T02:43:05.129Z,1.80
2023-12-26T02:45:32.687Z,1.30
2023-12-26T02:48:00.220Z,2.80
2023-12-26T02:50:28.008Z,1.80
2023-12-26T02:52:55.939Z,1.90
2023-12-26T02:55:23.737Z,1.20
2023-12-26T02:57:51.397Z,1.30
2023-12-26T03:00:19.114Z,2.20
2023-12-26T03:02:46.914Z,1.40
2023-12-26T03:05:14.647Z,2.30
2023-12-26T03:07:42.455Z,1.10
2023-12-26T03:10:10.150Z,2.00
2023-12-26T03:12:37.773Z,1.50
2023-12-26T03:15:05.447Z,1.20
2023-12-26T03:17:33.378Z,2.70
2023-12-26T03:20:01.020Z,3.10
2023-12-26T03:22:28.832Z,2.30
2023-12-26T03:24:56.397Z,1.70
2023-12-26T03:27:23.966Z,1.80
2023-12-26T03:29:52.064Z,2.10
2023-12-26T03:32:19.804Z,3.50
2023-12-26T03:34:47.865Z,5.50
2023-12-26T03:37:15.425Z,3.00
2023-12-26T03:39:43.120Z,2.60
2023-12-26T03:42:10.805Z,2.50
2023-12-26T03:44:38.589Z,2.00
2023-12-26T03:47:06.481Z,1.70
2023-12-26T03:49:34.243Z,3.00
2023-12-26T03:52:01.997Z,2.10
2023-12-26T03:54:29.562Z,1.10
2023-12-26T03:56:57.262Z,2.20
2023-12-26T03:59:24.897Z,2.10
2023-12-26T04:01:52.531Z,1.20
2023-12-26T04:04:20.452Z,1.30
2023-12-26T04:06:48.272Z,2.10
2023-12-26T04:09:15.629Z,1.80
2023-12-26T04:11:43.643Z,1.70
2023-12-26T04:14:11.456Z,2.50
2023-12-26T04:16:41.746Z,8.30
2023-12-26T04:19:11.279Z,4.70
2023-12-26T04:21:39.071Z,3.20
2023-12-26T04:24:06.764Z,1.60
2023-12-26T04:26:34.379Z,1.70
2023-12-26T04:29:02.034Z,1.60
2023-12-26T04:31:29.590Z,1.30
2023-12-26T04:33:57.285Z,1.80
2023-12-26T04:36:25.130Z,1.40
2023-12-26T04:38:52.905Z,2.30
2023-12-26T04:41:20.549Z,1.90
2023-12-26T04:43:48.104Z,1.40
2023-12-26T04:46:15.765Z,2.40
2023-12-26T04:48:43.413Z,2.40
2023-12-26T04:51:11.107Z,2.30
2023-12-26T04:53:38.818Z,1.60
2023-12-26T04:56:06.820Z,1.40
2023-12-26T04:58:34.611Z,1.10
2023-12-26T05:01:02.254Z,1.30
2023-12-26T05:03:29.851Z,1.10
2023-12-26T05:05:57.827Z,1.10
2023-12-26T05:08:25.671Z,1.70
2023-12-26T05:10:53.195Z,1.30
2023-12-26T05:13:20.908Z,1.30
2023-12-26T05:15:48.521Z,1.70
2023-12-26T05:18:16.585Z,1.60
2023-12-26T05:20:44.380Z,1.40
2023-12-26T05:23:11.914Z,1.70
2023-12-26T05:25:39.669Z,1.50
2023-12-26T05:28:07.339Z,2.00
2023-12-26T05:30:35.046Z,2.00
2023-12-26T05:33:03.237Z,2.20
2023-12-26T05:35:31.144Z,1.30
2023-12-26T05:37:58.696Z,1.60
2023-12-26T05:40:26.255Z,1.30
2023-12-26T05:42:56.224Z,1.80
2023-12-26T05:45:24.280Z,1.70
2023-12-26T05:47:52.015Z,1.20
2023-12-26T05:50:20.094Z,1.90
2023-12-26T05:52:47.847Z,2.70
2023-12-26T05:55:15.519Z,1.10
2023-12-26T05:57:43.169Z,1.30
2023-12-26T06:00:10.932Z,2.60
2023-12-26T06:02:38.714Z,1.20
2023-12-26T06:05:06.250Z,1.20
2023-12-26T06:07:33.923Z,1.70
2023-12-26T06:10:01.466Z,2.50
2023-12-26T06:12:29.132Z,1.80
2023-12-26T06:14:56.714Z,1.30
2023-12-26T06:17:24.305Z,2.10
2023-12-26T06:19:52.468Z,1.50
2023-12-26T06:22:20.176Z,1.10
2023-12-26T06:24:47.837Z,1.80
2023-12-26T06:27:15.593Z,1.30
2023-12-26T06:29:43.287Z,1.10
2023-12-26T06:32:10.936Z,1.20
2023-12-26T06:34:38.698Z,1.40
2023-12-26T06:37:06.358Z,1.70
2023-12-26T06:39:34.333Z,1.60
2023-12-26T06:42:01.914Z,3.00
2023-12-26T06:44:29.542Z,3.70
2023-12-26T06:46:57.106Z,2.00
2023-12-26T06:49:24.910Z,2.30
2023-12-26T06:51:52.527Z,1.60
2023-12-26T06:54:20.323Z,1.20
2023-12-26T06:56:48.018Z,1.40
2023-12-26T06:59:15.610Z,1.90
2023-12-26T07:01:43.474Z,1.60
2023-12-26T07:04:11.282Z,2.20
2023-12-26T07:06:38.956Z,2.50
2023-12-26T07:09:06.842Z,2.20
2023-12-26T07:11:34.531Z,2.80
2023-12-26T07:14:02.193Z,1.60
2023-12-26T07:16:29.758Z,3.40
2023-12-26T07:18:57.420Z,7.90
2023-12-26T07:21:25.171Z,7.10
2023-12-26T07:23:52.883Z,7.20
2023-12-26T07:26:20.913Z,1.60
2023-12-26T07:28:48.469Z,2.60
2023-12-26T07:31:16.138Z,2.50
2023-12-26T07:33:43.815Z,0.70
2023-12-26T07:36:11.541Z,0.50
2023-12-26T07:38:39.279Z,1.70
2023-12-26T07:41:07.090Z,0.90
2023-12-26T07:43:34.639Z,1.10
2023-12-26T07:46:02.504Z,1.60
2023-12-26T07:48:30.169Z,1.30
2023-12-26T07:50:58.073Z,2.00
2023-12-26T07:53:25.598Z,3.50
2023-12-26T07:55:53.265Z,2.60
2023-12-26T07:58:20.807Z,1.60
2023-12-26T08:00:48.595Z,1.70
2023-12-26T08:03:16.599Z,3.00
2023-12-26T08:05:44.729Z,1.50
2023-12-26T08:08:12.477Z,2.10
2023-12-26T08:10:40.142Z,3.00
2023-12-26T08:13:07.810Z,2.70
2023-12-26T08:15:35.475Z,3.80
2023-12-26T08:18:03.245Z,3.20
2023-12-26T08:20:31.101Z,2.20
2023-12-26T08:22:58.848Z,2.60
2023-12-26T08:25:26.821Z,3.00
2023-12-26T08:27:54.491Z,2.10
2023-12-26T08:30:22.121Z,1.30
2023-12-26T08:32:49.940Z,2.00
2023-12-26T08:35:17.517Z,2.00
2023-12-26T08:37:45.232Z,2.10
2023-12-26T08:40:12.795Z,4.70
2023-12-26T08:42:40.359Z,2.70
2023-12-26T08:45:08.272Z,2.00
2023-12-26T08:47:36.218Z,1.40
2023-12-26T08:50:03.949Z,1.40
2023-12-26T08:52:31.621Z,1.80
2023-12-26T08:54:59.258Z,7.40
2023-12-26T08:57:27.033Z,2.50
2023-12-26T08:59:54.636Z,4.90
2023-12-26T09:02:22.146Z,2.60
2023-12-26T09:04:50.155Z,3.10
2023-12-26T09:07:17.784Z,2.90
2023-12-26T09:09:45.436Z,2.40
2023-12-26T09:12:13.031Z,4.50
2023-12-26T09:14:40.742Z,4.30
2023-12-26T09:17:08.529Z,2.50
2023-12-26T09:19:36.380Z,4.20
2023-12-26T09:22:04.156Z,3.10
2023-12-26T09:24:31.732Z,2.30
2023-12-26T09:26:59.941Z,4.00
2023-12-26T09:29:27.651Z,2.70
2023-12-26T09:31:55.205Z,2.80
2023-12-26T09:34:22.896Z,1.80
2023-12-26T09:36:50.630Z,1.80
2023-12-26T09:39:18.138Z,3.70
2023-12-26T09:41:45.773Z,3.20
2023-12-26T09:44:13.412Z,3.40
2023-12-26T09:46:40.967Z,3.80
2023-12-26T09:49:15.739Z,2.20
2023-12-26T09:51:44.621Z,2.60
2023-12-26T09:54:12.361Z,3.80
2023-12-26T09:56:39.907Z,13.30
2023-12-26T09:59:07.575Z,8.10
2023-12-26T10:01:35.245Z,14.90
2023-12-26T10:04:02.909Z,1.90
2023-12-26T10:06:30.696Z,3.30
2023-12-26T10:08:58.341Z,2.60
2023-12-26T10:11:26.279Z,1.80
2023-12-26T10:13:53.886Z,1.00
2023-12-26T10:16:21.607Z,2.20
2023-12-26T10:18:49.310Z,1.70
2023-12-26T10:21:17.176Z,2.50
2023-12-26T10:23:44.842Z,1.80
2023-12-26T10:26:12.560Z,1.70
2023-12-26T10:28:40.244Z,5.10
2023-12-26T10:31:07.821Z,2.60
2023-12-26T10:33:35.809Z,1.40
2023-12-26T10:36:03.637Z,1.60
2023-12-26T10:38:31.069Z,1.50
2023-12-26T10:40:58.736Z,1.30
2023-12-26T10:43:26.293Z,2.20
2023-12-26T10:45:53.859Z,2.90
2023-12-26T10:48:21.514Z,3.50
2023-12-26T10:50:49.503Z,2.40
2023-12-26T10:53:17.467Z,1.60
2023-12-26T10:55:45.119Z,1.10
2023-12-26T10:58:12.769Z,1.00
2023-12-26T11:00:40.357Z,2.00
2023-12-26T11:03:08.227Z,1.90
2023-12-26T11:05:35.996Z,5.10
2023-12-26T11:08:03.633Z,0.90
2023-12-26T11:10:31.284Z,0.90
2023-12-26T11:12:58.948Z,1.30
2023-12-26T11:15:27.130Z,2.50
2023-12-26T11:17:54.841Z,2.20
2023-12-26T11:20:22.868Z,1.80
2023-12-26T11:22:50.519Z,1.50
2023-12-26T11:25:18.075Z,2.20
2023-12-26T11:27:45.748Z,0.70
2023-12-26T11:30:13.448Z,4.30
2023-12-26T11:32:41.367Z,4.80
2023-12-26T11:35:09.016Z,2.70
2023-12-26T11:37:36.993Z,4.40
2023-12-26T11:40:04.655Z,2.50
2023-12-26T11:42:32.381Z,1.30
2023-12-26T11:45:00.037Z,1.40
2023-12-26T11:47:27.748Z,7.50
2023-12-26T11:49:55.534Z,17.20
2023-12-26T11:52:23.166Z,3.30
2023-12-26T11:54:51.031Z,12.80
2023-12-26T11:57:18.678Z,8.50
2023-12-26T11:59:46.460Z,3.10
2023-12-26T12:02:14.023Z,5.10
2023-12-26T12:04:41.672Z,6.90
2023-12-26T12:07:09.263Z,7.10
2023-12-26T12:09:37.000Z,12.00
2023-12-26T12:12:04.684Z,12.60
2023-12-26T12:14:32.321Z,6.80
2023-12-26T12:17:00.402Z,4.50
2023-12-26T12:19:28.049Z,8.70
2023-12-26T12:21:55.910Z,3.70
2023-12-26T12:24:23.601Z,3.20
2023-12-26T12:26:51.383Z,2.60
2023-12-26T12:29:18.801Z,2.80
2023-12-26T12:31:46.561Z,3.10
2023-12-26T12:34:14.302Z,3.60
2023-12-26T12:36:42.088Z,4.70
2023-12-26T12:39:09.783Z,8.20
2023-12-26T12:41:37.726Z,1.10
2023-12-26T12:44:14.645Z,2.80
2023-12-26T12:46:45.642Z,7.20
2023-12-26T12:49:14.613Z,11.50
2023-12-26T12:51:43.343Z,8.70
2023-12-26T12:54:10.950Z,4.50
2023-12-26T12:56:38.640Z,5.50
2023-12-26T12:59:06.196Z,8.70
2023-12-26T13:01:34.063Z,6.30
2023-12-26T13:04:01.802Z,6.00
2023-12-26T13:06:29.641Z,7.00
2023-12-26T13:08:57.276Z,2.00
2023-12-26T13:11:24.897Z,6.50
2023-12-26T13:13:52.679Z,5.40
2023-12-26T13:16:20.248Z,5.20
2023-12-26T13:18:48.022Z,8.20
2023-12-26T13:21:15.783Z,7.60
2023-12-26T13:23:43.735Z,2.60
2023-12-26T13:26:11.391Z,1.60
2023-12-26T13:28:39.057Z,1.60
2023-12-26T13:31:07.467Z,1.90
2023-12-26T13:33:35.285Z,1.20
2023-12-26T13:36:03.243Z,3.30
2023-12-26T13:38:30.736Z,1.80
2023-12-26T13:40:58.285Z,2.00
2023-12-26T13:43:34.962Z,5.80
2023-12-26T13:46:05.577Z,2.10
2023-12-26T13:48:33.445Z,1.80
2023-12-26T13:51:01.335Z,2.70
2023-12-26T13:53:29.155Z,4.00
2023-12-26T13:55:56.839Z,21.00
2023-12-26T13:58:24.501Z,33.70
2023-12-26T14:00:52.216Z,8.60
2023-12-26T14:03:20.424Z,25.60
2023-12-26T14:05:48.300Z,17.30
2023-12-26T14:08:15.966Z,7.40
2023-12-26T14:10:43.641Z,20.10
2023-12-26T14:13:11.200Z,26.70
2023-12-26T14:15:38.965Z,12.20
2023-12-26T14:18:06.841Z,15.20
2023-12-26T14:20:34.494Z,8.30
2023-12-26T14:23:02.139Z,3.80
2023-12-26T14:25:30.206Z,5.30
2023-12-26T14:27:57.774Z,10.10
2023-12-26T14:30:25.557Z,29.60
2023-12-26T14:32:53.317Z,10.00
2023-12-26T14:35:21.123Z,47.60
2023-12-26T14:37:49.028Z,12.70
2023-12-26T14:40:16.611Z,24.00
2023-12-26T14:42:44.350Z,14.70
2023-12-26T14:45:12.357Z,9.00
2023-12-26T14:47:40.241Z,7.00
2023-12-26T14:50:08.106Z,3.70
2023-12-26T14:52:35.927Z,2.40
2023-12-26T14:55:03.469Z,5.00
2023-12-26T14:57:31.176Z,11.00
2023-12-26T14:59:59.221Z,10.30
2023-12-26T15:02:26.973Z,16.90
2023-12-26T15:04:54.844Z,20.80
2023-12-26T15:07:22.458Z,17.20
2023-12-26T15:09:50.050Z,18.20
2023-12-26T15:12:17.757Z,24.60
2023-12-26T15:14:47.108Z,32.80
2023-12-26T15:17:15.492Z,17.00
2023-12-26T15:19:43.489Z,16.30
2023-12-26T15:22:11.331Z,17.80
2023-12-26T15:24:38.943Z,11.70
2023-12-26T15:27:07.441Z,5.40
2023-12-26T15:29:35.134Z,3.70
2023-12-26T15:32:03.246Z,3.20
2023-12-26T15:34:31.292Z,4.10
2023-12-26T15:36:59.049Z,3.50
2023-12-26T15:39:28.438Z,7.10
2023-12-26T15:41:56.319Z,12.60
2023-12-26T15:44:23.965Z,4.90
2023-12-26T15:46:51.524Z,5.80
2023-12-26T15:49:19.304Z,19.80
2023-12-26T15:51:46.956Z,14.00
2023-12-26T15:54:14.603Z,11.80
2023-12-26T15:56:42.277Z,18.40
2023-12-26T15:59:09.935Z,17.70
2023-12-26T16:01:37.494Z,18.90
2023-12-26T16:04:05.303Z,20.00
2023-12-26T16:06:33.145Z,13.90
2023-12-26T16:09:00.941Z,31.00
2023-12-26T16:11:28.880Z,25.60
2023-12-26T16:13:56.619Z,30.40
2023-12-26T16:16:24.181Z,17.60
2023-12-26T16:18:51.956Z,17.10
2023-12-26T16:21:19.737Z,20.80
2023-12-26T16:23:47.406Z,24.60
2023-12-26T16:26:15.122Z,27.50
2023-12-26T16:28:42.681Z,28.30
2023-12-26T16:31:10.429Z,21.30
2023-12-26T16:33:38.758Z,27.00
2023-12-26T16:36:06.613Z,28.30
2023-12-26T16:38:34.262Z,19.20
2023-12-26T16:41:01.975Z,23.20
2023-12-26T16:43:29.587Z,24.40
2023-12-26T16:45:57.249Z,22.10
2023-12-26T16:48:24.911Z,22.00
2023-12-26T16:50:53.125Z,18.60
2023-12-26T16:53:20.731Z,18.60
2023-12-26T16:55:48.400Z,42.10
2023-12-26T16:58:15.953Z,46.20
2023-12-26T17:00:43.695Z,29.80
2023-12-26T17:03:11.463Z,32.20
2023-12-26T17:05:39.239Z,25.60
2023-12-26T17:08:07.006Z,20.90
2023-12-26T17:10:34.661Z,20.80
2023-12-26T17:13:02.656Z,34.30
2023-12-26T17:15:30.321Z,16.30
2023-12-26T17:17:58.108Z,22.10
2023-12-26T17:20:25.930Z,22.30
2023-12-26T17:22:53.897Z,8.30
2023-12-26T17:25:21.665Z,8.20
2023-12-26T17:27:49.224Z,9.10
2023-12-26T17:30:17.019Z,7.60
2023-12-26T17:32:44.715Z,6.50
2023-12-26T17:35:12.714Z,8.70
2023-12-26T17:37:40.282Z,10.00
2023-12-26T17:40:07.851Z,9.60
2023-12-26T17:42:35.617Z,7.60
2023-12-26T17:45:03.347Z,6.30
2023-12-26T17:47:31.158Z,13.60
2023-12-26T17:49:59.193Z,13.00
2023-12-26T17:52:26.969Z,8.50
2023-12-26T17:54:54.514Z,6.80
2023-12-26T17:57:22.300Z,5.70
2023-12-26T17:59:50.043Z,5.80
2023-12-26T18:02:17.698Z,6.60
2023-12-26T18:04:45.271Z,5.70
2023-12-26T18:07:12.829Z,6.20
2023-12-26T18:09:40.572Z,5.00
2023-12-26T18:12:08.702Z,8.50
2023-12-26T18:14:36.424Z,7.20
2023-12-26T18:17:04.097Z,10.40
2023-12-26T18:19:31.598Z,7.50
2023-12-26T18:21:59.392Z,5.80
2023-12-26T18:24:27.084Z,18.00
2023-12-26T18:26:54.847Z,19.20
2023-12-26T18:29:22.382Z,18.90
2023-12-26T18:31:49.950Z,16.90
2023-12-26T18:34:17.726Z,19.50
2023-12-26T18:36:45.574Z,7.90
2023-12-26T18:39:13.153Z,4.70
2023-12-26T18:41:40.800Z,5.30
2023-12-26T18:44:08.466Z,6.60
2023-12-26T18:46:36.119Z,21.10
2023-12-26T18:49:04.030Z,36.30
2023-12-26T18:51:31.836Z,20.50
2023-12-26T18:53:59.649Z,33.50
2023-12-26T18:56:27.174Z,11.10
2023-12-26T18:58:55.167Z,3.80
2023-12-26T19:01:22.728Z,25.50
2023-12-26T19:03:50.428Z,14.50
2023-12-26T19:06:18.245Z,19.30
2023-12-26T19:08:45.994Z,12.60
2023-12-26T19:11:13.672Z,39.50
2023-12-26T19:13:41.208Z,16.70
2023-12-26T19:16:08.867Z,17.80
2023-12-26T19:18:36.547Z,19.30
2023-12-26T19:21:04.404Z,17.00
2023-12-26T19:23:31.955Z,27.40
2023-12-26T19:25:59.522Z,14.00
2023-12-26T19:28:27.174Z,26.30
2023-12-26T19:30:54.922Z,32.80
2023-12-26T19:33:22.806Z,50.60
2023-12-26T19:35:50.602Z,18.40
2023-12-26T19:38:18.338Z,27.80
2023-12-26T19:40:46.195Z,27.40
2023-12-26T19:43:13.859Z,24.60
2023-12-26T19:45:41.420Z,7.90
2023-12-26T19:48:09.109Z,14.70
2023-12-26T19:50:36.857Z,13.20
2023-12-26T19:53:04.707Z,17.90
2023-12-26T19:55:32.683Z,18.10
2023-12-26T19:58:00.544Z,21.60
2023-12-26T20:00:28.702Z,17.20
2023-12-26T20:02:56.929Z,11.60
2023-12-26T20:05:25.391Z,14.10
2023-12-26T20:07:52.942Z,10.60
2023-12-26T20:10:20.588Z,12.10
2023-12-26T20:12:48.439Z,21.10
2023-12-26T20:15:16.125Z,15.40
2023-12-26T20:17:43.925Z,12.50
2023-12-26T20:20:12.177Z,19.10
2023-12-26T20:22:39.824Z,22.20
2023-12-26T20:25:07.473Z,19.60
2023-12-26T20:27:35.188Z,9.60
2023-12-26T20:30:03.046Z,7.80
2023-12-26T20:32:30.578Z,18.80
2023-12-26T20:34:58.123Z,8.30
2023-12-26T20:37:25.683Z,7.00
2023-12-26T20:39:53.652Z,9.40
2023-12-26T20:42:21.325Z,6.20
2023-12-26T20:44:48.992Z,4.80
2023-12-26T20:47:16.535Z,7.20
2023-12-26T20:49:44.252Z,6.10
2023-12-26T20:52:12.080Z,13.90
2023-12-26T20:54:39.795Z,17.10
2023-12-26T20:57:07.520Z,5.20
2023-12-26T20:59:35.661Z,4.30
2023-12-26T21:02:03.243Z,3.60
2023-12-26T21:04:31.098Z,5.70
2023-12-26T21:06:58.896Z,6.70
2023-12-26T21:09:26.526Z,17.30
2023-12-26T21:11:54.089Z,26.10
2023-12-26T21:14:21.737Z,14.50
2023-12-26T21:16:49.288Z,12.80
2023-12-26T21:19:17.084Z,13.20
2023-12-26T21:21:44.813Z,13.40
2023-12-26T21:24:12.552Z,15.40
2023-12-26T21:26:40.571Z,14.60
2023-12-26T21:29:08.211Z,9.30
2023-12-26T21:31:35.937Z,8.60
2023-12-26T21:34:04.288Z,9.90
2023-12-26T21:36:32.676Z,4.50
2023-12-26T21:39:00.821Z,6.10
2023-12-26T21:41:28.662Z,8.60
2023-12-26T21:43:56.325Z,4.40
2023-12-26T21:46:24.206Z,7.20
2023-12-26T21:48:52.041Z,4.70
2023-12-26T21:51:19.865Z,6.80
2023-12-26T21:53:47.508Z,7.20
2023-12-26T21:56:15.246Z,4.90
2023-12-26T21:58:42.811Z,4.90
2023-12-26T22:01:10.488Z,7.40
2023-12-26T22:03:38.098Z,7.20
2023-12-26T22:06:06.363Z,3.80
2023-12-26T22:08:34.167Z,5.60
2023-12-26T22:11:01.832Z,9.80
2023-12-26T22:13:29.405Z,5.10
2023-12-26T22:15:57.129Z,6.60
2023-12-26T22:18:25.131Z,5.60
2023-12-26T22:20:53.024Z,12.30
2023-12-26T22:23:20.649Z,11.40
2023-12-26T22:25:48.303Z,8.50
2023-12-26T22:28:16.292Z,7.10
2023-12-26T22:30:43.983Z,5.70
2023-12-26T22:33:11.844Z,3.40
2023-12-26T22:35:39.788Z,10.50
2023-12-26T22:38:07.337Z,7.10
2023-12-26T22:40:35.000Z,6.60
2023-12-26T22:43:02.579Z,5.20
2023-12-26T22:45:30.588Z,4.20
2023-12-26T22:47:59.254Z,5.40
2023-12-26T22:50:27.166Z,3.80
2023-12-26T22:52:54.826Z,4.40
2023-12-26T22:55:22.399Z,5.50
2023-12-26T22:57:50.070Z,4.10
2023-12-26T23:00:17.676Z,6.10
2023-12-26T23:02:45.384Z,2.90
2023-12-26T23:05:12.976Z,6.30
2023-12-26T23:07:41.107Z,10.70
2023-12-26T23:10:08.716Z,5.30
2023-12-26T23:12:36.455Z,7.30
2023-12-26T23:15:04.243Z,8.90
2023-12-26T23:17:32.211Z,10.20
2023-12-26T23:20:00.055Z,6.00
2023-12-26T23:22:27.693Z,9.50
2023-12-26T23:24:55.258Z,3.40
2023-12-26T23:27:22.923Z,5.00
2023-12-26T23:29:50.470Z,6.70
2023-12-26T23:32:18.137Z,3.90
2023-12-26T23:34:48.531Z,3.30
2023-12-26T23:37:17.062Z,7.00
2023-12-26T23:39:44.710Z,5.70
2023-12-26T23:42:12.592Z,3.80
2023-12-26T23:44:40.424Z,4.20
2023-12-26T23:47:08.091Z,6.00
2023-12-26T23:49:35.688Z,4.70
2023-12-26T23:52:03.312Z,2.90
2023-12-26T23:54:30.979Z,3.50
2023-12-26T23:56:58.697Z,6.50
2023-12-26T23:59:26.301Z,5.10
